createdAt,value
2018-07-25T00:00:21.400Z,56.30
2018-07-25T00:02:50.474Z,56.40
2018-07-25T00:05:19.611Z,56.50
2018-07-25T00:07:48.718Z,56.50
2018-07-25T00:10:18.058Z,56.60
2018-07-25T00:12:47.822Z,56.70
2018-07-25T00:15:17.424Z,56.80
2018-07-25T00:17:46.982Z,56.90
2018-07-25T00:20:16.124Z,56.90
2018-07-25T00:22:45.286Z,57.00
2018-07-25T00:25:14.470Z,57.10
2018-07-25T00:27:43.572Z,57.10
2018-07-25T00:30:12.736Z,57.10
2018-07-25T00:32:43.061Z,57.30
2018-07-25T00:35:12.162Z,57.40
2018-07-25T00:37:41.332Z,58.00
2018-07-25T00:40:11.356Z,57.60
2018-07-25T00:42:40.468Z,57.60
2018-07-25T00:45:10.297Z,57.70
2018-07-25T00:47:39.436Z,57.80
2018-07-25T00:50:08.747Z,58.50
2018-07-25T00:52:37.811Z,57.90
2018-07-25T00:55:06.963Z,58.00
2018-07-25T00:57:36.379Z,58.20
2018-07-25T01:00:05.613Z,58.20
2018-07-25T01:02:34.718Z,58.30
2018-07-25T01:05:03.960Z,58.40
2018-07-25T01:07:33.044Z,58.60
2018-07-25T01:10:02.194Z,58.70
2018-07-25T01:12:31.415Z,58.70
2018-07-25T01:15:00.612Z,58.80
2018-07-25T01:17:30.008Z,58.90
2018-07-25T01:19:59.102Z,58.90
2018-07-25T01:22:28.278Z,59.10
2018-07-25T01:24:57.406Z,59.10
2018-07-25T01:27:26.560Z,59.30
2018-07-25T01:29:55.661Z,59.30
2018-07-25T01:32:24.858Z,59.50
2018-07-25T01:34:54.231Z,59.50
2018-07-25T01:37:23.341Z,59.70
2018-07-25T01:39:52.580Z,59.70
2018-07-25T01:42:22.147Z,59.70
2018-07-25T01:44:51.243Z,59.80
2018-07-25T01:47:20.435Z,59.90
2018-07-25T01:49:49.631Z,60.00
2018-07-25T01:52:18.732Z,60.20
2018-07-25T01:54:47.920Z,60.20
2018-07-25T01:57:17.036Z,60.40
2018-07-25T01:59:46.220Z,60.30
2018-07-25T02:02:15.508Z,60.50
2018-07-25T02:04:47.022Z,60.60
2018-07-25T02:07:16.136Z,60.80
2018-07-25T02:09:45.257Z,60.70
2018-07-25T02:12:14.362Z,60.80
2018-07-25T02:14:44.158Z,61.00
2018-07-25T02:17:13.404Z,61.00
2018-07-25T02:19:42.507Z,61.10
2018-07-25T02:22:11.598Z,61.20
2018-07-25T02:24:40.753Z,61.30
2018-07-25T02:27:09.855Z,61.30
2018-07-25T02:29:39.014Z,61.30
2018-07-25T02:32:08.294Z,61.50
2018-07-25T02:34:37.432Z,61.60
2018-07-25T02:37:06.537Z,61.50
2018-07-25T02:39:35.729Z,61.60
2018-07-25T02:42:04.990Z,61.80
2018-07-25T02:44:34.088Z,61.70
2018-07-25T02:47:03.526Z,61.80
2018-07-25T02:49:32.734Z,61.90
2018-07-25T02:52:02.093Z,62.10
2018-07-25T02:54:31.248Z,62.10
2018-07-25T02:57:00.712Z,62.10
2018-07-25T02:59:29.817Z,62.20
2018-07-25T03:01:58.937Z,62.30
2018-07-25T03:04:28.057Z,62.30
2018-07-25T03:06:57.246Z,62.40
2018-07-25T03:09:26.349Z,62.50
2018-07-25T03:11:55.523Z,62.60
2018-07-25T03:14:24.644Z,62.60
2018-07-25T03:16:53.781Z,62.80
2018-07-25T03:19:22.848Z,62.80
2018-07-25T03:21:52.102Z,62.90
2018-07-25T03:24:21.212Z,63.00
2018-07-25T03:26:50.419Z,63.00
2018-07-25T03:29:19.542Z,63.10
2018-07-25T03:31:48.696Z,63.20
2018-07-25T03:34:17.769Z,63.20
2018-07-25T03:36:47.221Z,63.30
2018-07-25T03:39:17.358Z,63.40
2018-07-25T03:41:46.472Z,63.50
2018-07-25T03:44:15.789Z,63.60
2018-07-25T03:46:45.249Z,63.80
2018-07-25T03:49:14.407Z,63.90
2018-07-25T03:51:43.543Z,64.00
2018-07-25T03:54:12.683Z,64.00
2018-07-25T03:56:41.786Z,64.00
2018-07-25T03:59:10.914Z,64.20
2018-07-25T04:01:40.020Z,64.20
2018-07-25T04:04:10.086Z,64.10
2018-07-25T04:06:39.586Z,64.20
2018-07-25T04:09:09.145Z,64.30
2018-07-25T04:11:38.458Z,64.40
2018-07-25T04:14:07.540Z,64.50
2018-07-25T04:16:36.697Z,64.60
2018-07-25T04:19:06.059Z,64.60
2018-07-25T04:21:36.155Z,64.50
2018-07-25T04:24:05.816Z,64.50
2018-07-25T04:26:35.610Z,64.60
2018-07-25T04:29:05.216Z,64.70
2018-07-25T04:31:34.827Z,64.60
2018-07-25T04:34:03.949Z,64.60
2018-07-25T04:36:33.038Z,64.60
2018-07-25T04:39:03.221Z,64.60
2018-07-25T04:41:32.296Z,64.50
2018-07-25T04:44:01.566Z,64.60
2018-07-25T04:46:30.963Z,64.50
2018-07-25T04:49:00.267Z,64.40
2018-07-25T04:51:29.608Z,64.40
2018-07-25T04:53:58.725Z,64.50
2018-07-25T04:56:27.919Z,64.40
2018-07-25T04:58:57.099Z,64.30
2018-07-25T05:01:26.259Z,64.20
2018-07-25T05:03:55.400Z,64.20
2018-07-25T05:06:24.636Z,64.10
2018-07-25T05:08:53.820Z,64.10
2018-07-25T05:11:22.927Z,63.90
2018-07-25T05:13:52.116Z,63.70
2018-07-25T05:16:21.732Z,63.40
2018-07-25T05:18:51.561Z,63.40
2018-07-25T05:21:20.679Z,63.10
2018-07-25T05:23:50.047Z,63.00
2018-07-25T05:26:19.254Z,62.80
2018-07-25T05:28:48.375Z,62.70
2018-07-25T05:31:17.679Z,62.60
2018-07-25T05:34:05.364Z,62.40
2018-07-25T05:36:34.482Z,62.20
2018-07-25T05:39:04.966Z,62.20
2018-07-25T05:41:34.086Z,62.10
2018-07-25T05:44:03.384Z,62.00
2018-07-25T05:46:32.532Z,62.00
2018-07-25T05:49:02.388Z,61.90
2018-07-25T05:51:31.502Z,61.90
2018-07-25T05:54:00.666Z,61.50
2018-07-25T05:56:30.006Z,61.40
2018-07-25T05:58:59.706Z,61.30
2018-07-25T06:01:29.455Z,61.10
2018-07-25T06:03:58.554Z,61.00
2018-07-25T06:06:27.798Z,60.90
2018-07-25T06:08:56.886Z,60.50
2018-07-25T06:11:26.111Z,60.70
2018-07-25T06:13:55.283Z,60.50
2018-07-25T06:16:24.563Z,60.30
2018-07-25T06:18:53.725Z,60.20
2018-07-25T06:21:23.084Z,60.10
2018-07-25T06:23:52.270Z,60.00
2018-07-25T06:26:21.406Z,59.70
2018-07-25T06:28:50.617Z,59.60
2018-07-25T06:31:19.820Z,59.50
2018-07-25T06:33:56.598Z,59.30
2018-07-25T06:36:29.749Z,59.10
2018-07-25T06:39:06.676Z,59.00
2018-07-25T06:41:45.258Z,58.80
2018-07-25T06:44:26.241Z,58.80
2018-07-25T06:49:58.602Z,58.90
2018-07-25T06:52:45.720Z,58.90
2018-07-25T06:55:19.690Z,58.70
2018-07-25T06:57:57.168Z,58.60
2018-07-25T07:00:32.039Z,58.60
2018-07-25T07:03:06.615Z,58.60
2018-07-25T07:05:43.001Z,58.90
2018-07-25T07:08:24.363Z,58.60
2018-07-25T07:11:01.057Z,57.60
2018-07-25T07:13:35.153Z,57.60
2018-07-25T07:16:09.342Z,57.40
2018-07-25T07:18:46.522Z,57.30
2018-07-25T07:21:19.057Z,57.00
2018-07-25T07:23:51.251Z,56.70
2018-07-25T07:26:22.613Z,56.60
2018-07-25T07:28:55.501Z,56.50
2018-07-25T07:31:29.685Z,56.70
2018-07-25T07:33:59.480Z,56.10
2018-07-25T07:36:33.522Z,55.90
2018-07-25T07:39:09.471Z,56.00
2018-07-25T07:41:41.332Z,55.80
2018-07-25T07:44:16.578Z,55.70
2018-07-25T07:46:58.381Z,55.40
2018-07-25T07:52:11.326Z,54.80
2018-07-25T07:54:41.405Z,54.60
2018-07-25T07:57:14.350Z,54.60
2018-07-25T07:59:48.589Z,54.30
2018-07-25T08:02:19.747Z,54.00
2018-07-25T08:04:50.485Z,54.00
2018-07-25T08:07:24.160Z,53.70
2018-07-25T08:09:58.151Z,53.30
2018-07-25T08:12:31.687Z,52.90
2018-07-25T08:15:03.391Z,52.70
2018-07-25T08:17:34.531Z,52.50
2018-07-25T08:20:04.334Z,52.20
2018-07-25T08:22:34.309Z,52.10
2018-07-25T08:25:10.514Z,52.00
2018-07-25T08:27:43.825Z,52.20
2018-07-25T08:30:15.561Z,52.00
2018-07-25T08:32:45.407Z,51.80
2018-07-25T08:35:14.666Z,51.40
2018-07-25T08:37:43.765Z,51.00
2018-07-25T08:40:12.924Z,50.80
2018-07-25T08:42:42.024Z,50.50
2018-07-25T08:45:11.166Z,50.20
2018-07-25T08:47:41.541Z,50.00
2018-07-25T08:50:11.179Z,49.70
2018-07-25T08:52:41.166Z,49.60
2018-07-25T08:55:10.888Z,49.50
2018-07-25T08:57:42.942Z,49.50
2018-07-25T09:00:18.116Z,49.50
2018-07-25T09:02:50.514Z,49.30
2018-07-25T09:05:19.963Z,49.20
2018-07-25T09:07:49.459Z,49.10
2018-07-25T09:10:18.741Z,49.30
2018-07-25T09:12:48.285Z,49.20
2018-07-25T09:15:17.872Z,49.20
2018-07-25T09:17:47.242Z,49.30
2018-07-25T09:20:16.499Z,49.10
2018-07-25T09:22:47.329Z,48.80
2018-07-25T09:25:17.942Z,48.80
2018-07-25T09:27:47.373Z,48.90
2018-07-25T09:30:16.984Z,48.80
2018-07-25T09:32:54.924Z,48.30
2018-07-25T09:35:31.312Z,48.10
2018-07-25T09:38:06.643Z,48.00
2018-07-25T09:40:39.903Z,47.90
2018-07-25T09:43:12.473Z,48.00
2018-07-25T09:45:47.317Z,47.90
2018-07-25T09:48:19.070Z,47.60
2018-07-25T09:50:49.142Z,47.60
2018-07-25T09:53:20.797Z,46.70
2018-07-25T09:55:49.957Z,46.30
2018-07-25T09:58:20.699Z,45.70
2018-07-25T10:00:51.343Z,45.50
2018-07-25T10:03:21.830Z,45.30
2018-07-25T10:05:52.519Z,44.60
2018-07-25T10:08:22.276Z,44.40
2018-07-25T10:10:51.671Z,44.70
2018-07-25T10:13:20.840Z,44.30
2018-07-25T10:15:50.015Z,44.10
2018-07-25T10:18:19.238Z,43.50
2018-07-25T10:20:48.503Z,43.20
2018-07-25T10:23:23.838Z,42.60
2018-07-25T10:25:57.848Z,42.30
2018-07-25T10:28:32.848Z,42.30
2018-07-25T10:31:04.642Z,42.20
2018-07-25T10:33:35.384Z,41.70
2018-07-25T10:36:08.728Z,41.70
2018-07-25T10:38:41.530Z,41.30
2018-07-25T10:41:15.729Z,41.40
2018-07-25T10:43:50.623Z,41.80
2018-07-25T10:46:24.354Z,42.00
2018-07-25T10:49:01.937Z,41.90
2018-07-25T10:51:32.032Z,41.80
2018-07-25T10:54:09.359Z,41.80
2018-07-25T10:56:44.652Z,41.80
2018-07-25T10:59:17.852Z,41.90
2018-07-25T11:01:57.185Z,42.00
2018-07-25T11:04:37.770Z,42.00
2018-07-25T11:07:09.548Z,42.10
2018-07-25T11:10:00.738Z,41.80
2018-07-25T11:12:34.671Z,41.60
2018-07-25T11:15:08.426Z,41.00
2018-07-25T11:17:40.871Z,40.70
2018-07-25T11:20:13.036Z,40.60
2018-07-25T11:22:50.258Z,40.40
2018-07-25T11:25:24.148Z,39.50
2018-07-25T11:27:58.548Z,39.40
2018-07-25T11:30:27.979Z,39.10
2018-07-25T11:32:57.815Z,38.90
2018-07-25T11:35:27.400Z,39.00
2018-07-25T11:37:58.234Z,39.10
2018-07-25T11:40:31.488Z,38.90
2018-07-25T11:43:08.210Z,38.50
2018-07-25T11:45:39.608Z,37.80
2018-07-25T11:48:12.461Z,37.00
2018-07-25T11:50:44.031Z,36.50
2018-07-25T11:53:18.889Z,36.20
2018-07-25T11:55:49.854Z,36.40
2018-07-25T11:58:23.426Z,36.00
2018-07-25T12:00:57.489Z,35.30
2018-07-25T12:03:28.229Z,34.40
2018-07-25T12:05:58.929Z,33.30
2018-07-25T12:08:35.604Z,32.70
2018-07-25T12:11:09.842Z,32.10
2018-07-25T12:13:46.395Z,31.40
2018-07-25T12:16:19.410Z,30.50
2018-07-25T12:18:52.470Z,30.10
2018-07-25T12:21:24.875Z,29.70
2018-07-25T12:23:55.862Z,29.30
2018-07-25T12:26:26.490Z,29.00
2018-07-25T12:28:59.064Z,28.30
2018-07-25T12:31:31.293Z,27.90
2018-07-25T12:34:05.201Z,28.30
2018-07-25T12:36:39.515Z,28.30
2018-07-25T12:39:10.825Z,28.00
2018-07-25T12:41:42.191Z,27.80
2018-07-25T12:47:00.943Z,27.10
2018-07-25T12:49:34.332Z,26.80
2018-07-25T12:52:06.461Z,26.90
2018-07-25T12:54:42.866Z,26.50
2018-07-25T12:57:22.386Z,26.30
2018-07-25T12:59:57.712Z,26.20
2018-07-25T13:02:32.745Z,26.00
2018-07-25T13:05:08.609Z,25.90
2018-07-25T13:07:47.362Z,26.00
2018-07-25T13:10:19.938Z,25.90
2018-07-25T13:12:52.762Z,25.80
2018-07-25T13:15:24.967Z,25.50
2018-07-25T13:17:56.843Z,25.50
2018-07-25T13:20:29.964Z,25.40
2018-07-25T13:23:00.204Z,25.10
2018-07-25T13:25:29.329Z,25.10
2018-07-25T13:27:59.091Z,25.10
2018-07-25T13:30:28.594Z,25.10
2018-07-25T13:33:00.015Z,25.20
2018-07-25T13:35:31.330Z,25.20
2018-07-25T13:38:05.509Z,25.30
2018-07-25T13:40:35.170Z,25.40
2018-07-25T13:43:07.568Z,25.50
2018-07-25T13:45:39.212Z,25.50
2018-07-25T13:48:09.583Z,25.60
2018-07-25T13:50:38.750Z,25.50
2018-07-25T13:53:08.122Z,25.50
2018-07-25T13:55:37.289Z,25.40
2018-07-25T13:58:06.984Z,25.80
2018-07-25T14:00:36.669Z,26.00
2018-07-25T14:03:06.615Z,26.00
2018-07-25T14:05:36.091Z,25.90
2018-07-25T14:08:05.352Z,26.30
2018-07-25T14:10:34.507Z,26.50
2018-07-25T14:13:03.656Z,26.50
2018-07-25T14:15:33.184Z,26.40
2018-07-25T14:18:02.543Z,26.20
2018-07-25T14:20:31.668Z,26.10
2018-07-25T14:23:00.921Z,26.00
2018-07-25T14:25:30.033Z,26.10
2018-07-25T14:27:59.231Z,26.00
2018-07-25T14:30:28.417Z,26.00
2018-07-25T14:32:57.576Z,26.00
2018-07-25T14:35:26.725Z,26.40
2018-07-25T14:37:56.166Z,26.80
2018-07-25T14:40:25.378Z,28.00
2018-07-25T14:42:54.599Z,27.70
2018-07-25T14:45:23.699Z,27.60
2018-07-25T14:47:52.927Z,27.50
2018-07-25T14:50:22.083Z,27.50
2018-07-25T14:52:51.463Z,27.40
2018-07-25T14:55:21.912Z,27.10
2018-07-25T14:57:52.209Z,26.90
2018-07-25T15:00:21.932Z,26.90
2018-07-25T15:02:52.421Z,27.40
2018-07-25T15:05:21.758Z,28.10
2018-07-25T15:07:51.900Z,28.20
2018-07-25T15:10:21.025Z,28.10
2018-07-25T15:12:55.690Z,27.80
2018-07-25T15:15:25.796Z,27.50
2018-07-25T15:17:56.089Z,27.30
2018-07-25T15:20:26.323Z,27.20
2018-07-25T15:22:56.172Z,26.80
2018-07-25T15:25:26.260Z,26.80
2018-07-25T15:28:00.070Z,26.90
2018-07-25T15:30:31.134Z,27.00
2018-07-25T15:33:00.511Z,26.90
2018-07-25T15:35:37.074Z,26.60
2018-07-25T15:38:06.549Z,26.70
2018-07-25T15:40:40.319Z,26.50
2018-07-25T15:43:10.593Z,27.00
2018-07-25T15:45:40.907Z,28.70
2018-07-25T15:48:11.508Z,30.10
2018-07-25T15:50:43.009Z,31.30
2018-07-25T15:53:12.546Z,32.80
2018-07-25T15:55:41.751Z,34.70
2018-07-25T15:58:11.463Z,36.70
2018-07-25T16:00:40.932Z,38.50
2018-07-25T16:03:10.714Z,39.60
2018-07-25T16:05:40.428Z,40.70
2018-07-25T16:08:10.014Z,41.80
2018-07-25T16:10:39.385Z,43.20
2018-07-25T16:13:08.769Z,44.20
2018-07-25T16:15:37.948Z,44.90
2018-07-25T16:18:07.393Z,45.80
2018-07-25T16:20:36.651Z,46.80
2018-07-25T16:23:05.975Z,47.80
2018-07-25T16:25:35.356Z,48.00
2018-07-25T16:28:04.655Z,48.40
2018-07-25T16:30:33.857Z,48.00
2018-07-25T16:33:03.726Z,47.70
2018-07-25T16:35:33.548Z,48.10
2018-07-25T16:38:03.250Z,48.10
2018-07-25T16:40:32.500Z,48.60
2018-07-25T16:43:01.738Z,48.80
2018-07-25T16:45:31.006Z,49.20
2018-07-25T16:48:00.148Z,49.50
2018-07-25T16:50:29.376Z,49.80
2018-07-25T16:52:58.836Z,49.70
2018-07-25T16:55:29.102Z,48.60
2018-07-25T16:57:58.358Z,47.70
2018-07-25T17:00:27.655Z,46.80
2018-07-25T17:02:57.661Z,46.20
2018-07-25T17:05:27.540Z,45.50
2018-07-25T17:07:58.690Z,44.60
2018-07-25T17:10:28.424Z,44.30
2018-07-25T17:12:58.376Z,44.00
2018-07-25T17:15:27.679Z,43.70
2018-07-25T17:17:57.272Z,43.30
2018-07-25T17:20:26.712Z,42.80
2018-07-25T17:22:56.127Z,42.40
2018-07-25T17:25:25.984Z,42.10
2018-07-25T17:27:55.264Z,41.50
2018-07-25T17:30:24.528Z,41.30
2018-07-25T17:32:54.519Z,41.50
2018-07-25T17:35:25.340Z,41.70
2018-07-25T17:37:58.292Z,41.90
2018-07-25T17:40:28.505Z,42.20
2018-07-25T17:42:57.792Z,43.10
2018-07-25T17:45:26.996Z,43.60
2018-07-25T17:47:56.443Z,44.00
2018-07-25T17:50:25.687Z,44.00
2018-07-25T17:52:54.898Z,44.30
2018-07-25T17:55:24.095Z,44.70
2018-07-25T17:57:53.866Z,45.20
2018-07-25T18:00:23.154Z,45.70
2018-07-25T18:02:52.460Z,46.20
2018-07-25T18:05:22.497Z,46.70
2018-07-25T18:07:52.557Z,47.40
2018-07-25T18:10:22.309Z,47.80
2018-07-25T18:12:56.381Z,48.30
2018-07-25T18:15:25.857Z,48.90
2018-07-25T18:17:55.531Z,49.70
2018-07-25T18:20:25.539Z,50.00
2018-07-25T18:22:55.496Z,50.60
2018-07-25T18:25:25.880Z,51.20
2018-07-25T18:27:56.065Z,51.70
2018-07-25T18:30:25.297Z,52.00
2018-07-25T18:32:57.098Z,52.50
2018-07-25T18:35:28.898Z,52.70
2018-07-25T18:37:58.921Z,52.70
2018-07-25T18:40:28.853Z,52.90
2018-07-25T18:42:59.494Z,53.20
2018-07-25T18:45:30.834Z,53.30
2018-07-25T18:48:01.353Z,53.40
2018-07-25T18:50:31.935Z,53.30
2018-07-25T18:53:04.730Z,53.20
2018-07-25T18:55:34.147Z,53.30
2018-07-25T18:58:04.087Z,52.90
2018-07-25T19:00:34.605Z,52.80
2018-07-25T19:03:07.167Z,52.90
2018-07-25T19:05:40.255Z,52.90
2018-07-25T19:08:12.026Z,53.30
2018-07-25T19:10:42.557Z,53.40
2018-07-25T19:13:17.979Z,53.70
2018-07-25T19:15:48.822Z,53.60
2018-07-25T19:18:19.197Z,54.10
2018-07-25T19:20:49.881Z,54.30
2018-07-25T19:23:21.016Z,54.60
2018-07-25T19:25:51.690Z,54.60
2018-07-25T19:28:39.040Z,54.80
2018-07-25T19:31:11.702Z,55.00
2018-07-25T19:33:42.222Z,55.00
2018-07-25T19:36:12.618Z,55.20
2018-07-25T19:38:43.733Z,55.60
2018-07-25T19:41:15.695Z,55.60
2018-07-25T19:43:46.768Z,55.90
2018-07-25T19:46:19.259Z,56.20
2018-07-25T19:48:50.620Z,56.50
2018-07-25T19:51:23.199Z,56.80
2018-07-25T19:53:54.483Z,57.40
2018-07-25T19:56:29.596Z,57.80
2018-07-25T19:59:00.454Z,58.00
2018-07-25T20:01:30.604Z,58.90
2018-07-25T20:04:00.514Z,59.60
2018-07-25T20:06:29.765Z,59.90
2018-07-25T20:08:59.068Z,59.90
2018-07-25T20:11:29.162Z,60.30
2018-07-25T20:14:04.489Z,61.00
2018-07-25T20:16:34.817Z,61.60
2018-07-25T20:19:04.132Z,61.90
2018-07-25T20:21:33.964Z,62.30
2018-07-25T20:24:03.852Z,62.90
2018-07-25T20:26:33.736Z,63.20
2018-07-25T20:29:03.368Z,63.40
2018-07-25T20:31:34.355Z,63.70
2018-07-25T20:34:03.853Z,63.90
2018-07-25T20:36:33.057Z,64.00
2018-07-25T20:39:02.243Z,64.30
2018-07-25T20:41:32.162Z,64.50
2018-07-25T20:44:04.214Z,64.70
2018-07-25T20:46:33.491Z,64.90
2018-07-25T20:49:03.296Z,65.10
2018-07-25T20:51:33.566Z,65.10
2018-07-25T20:54:03.282Z,65.10
2018-07-25T20:56:33.514Z,65.30
2018-07-25T20:59:03.444Z,65.30
2018-07-25T21:01:33.157Z,65.40
2018-07-25T21:04:03.038Z,65.50
2018-07-25T21:06:33.675Z,65.60
2018-07-25T21:09:03.822Z,65.70
2018-07-25T21:11:33.239Z,65.70
2018-07-25T21:14:02.570Z,65.70
2018-07-25T21:16:32.451Z,65.80
2018-07-25T21:19:01.749Z,65.80
2018-07-25T21:21:31.634Z,65.90
2018-07-25T21:24:01.614Z,66.00
2018-07-25T21:26:31.704Z,66.00
2018-07-25T21:29:01.675Z,66.10
2018-07-25T21:31:31.901Z,66.20
2018-07-25T21:34:02.124Z,66.30
2018-07-25T21:36:32.505Z,66.40
2018-07-25T21:39:02.538Z,66.40
2018-07-25T21:41:38.785Z,66.50
2018-07-25T21:44:22.886Z,66.50
2018-07-25T21:46:54.055Z,66.60
2018-07-25T21:49:23.729Z,66.60
2018-07-25T21:51:52.946Z,66.60
2018-07-25T21:54:22.845Z,66.70
2018-07-25T21:56:52.031Z,66.70
2018-07-25T21:59:22.465Z,66.60
2018-07-25T22:01:52.075Z,66.90
2018-07-25T22:04:21.279Z,67.00
2018-07-25T22:06:50.495Z,67.10
2018-07-25T22:09:19.669Z,67.20
2018-07-25T22:11:48.916Z,67.30
2018-07-25T22:14:18.045Z,67.40
2018-07-25T22:16:47.338Z,67.40
2018-07-25T22:19:16.603Z,67.50
2018-07-25T22:21:45.802Z,67.60
2018-07-25T22:24:14.894Z,67.60
2018-07-25T22:26:44.149Z,67.70
2018-07-25T22:29:13.328Z,67.70
2018-07-25T22:31:43.651Z,67.80
2018-07-25T22:34:13.078Z,67.80
2018-07-25T22:36:42.374Z,68.10
2018-07-25T22:39:12.145Z,68.10
2018-07-25T22:41:41.236Z,68.50
2018-07-25T22:44:10.380Z,68.40
2018-07-25T22:46:39.499Z,68.90
2018-07-25T22:49:08.606Z,68.70
2018-07-25T22:51:38.055Z,68.80
2018-07-25T22:54:07.208Z,68.90
2018-07-25T22:56:36.312Z,68.80
2018-07-25T22:59:05.747Z,68.80
2018-07-25T23:01:34.900Z,68.90
2018-07-25T23:04:04.338Z,69.00
2018-07-25T23:06:33.685Z,68.90
2018-07-25T23:09:02.997Z,69.10
2018-07-25T23:11:32.617Z,69.10
2018-07-25T23:14:02.140Z,69.20
2018-07-25T23:16:31.542Z,69.20
2018-07-25T23:19:00.701Z,69.50
2018-07-25T23:21:29.883Z,70.30
2018-07-25T23:23:59.196Z,69.70
2018-07-25T23:26:28.314Z,69.90
2018-07-25T23:28:57.479Z,70.00
2018-07-25T23:31:26.595Z,70.20
2018-07-25T23:33:55.964Z,70.40
2018-07-25T23:36:25.109Z,70.50
2018-07-25T23:38:54.274Z,70.60
2018-07-25T23:41:23.891Z,70.60
2018-07-25T23:43:53.181Z,70.80
2018-07-25T23:46:22.954Z,70.80
2018-07-25T23:48:52.244Z,70.90
2018-07-25T23:51:21.442Z,70.90
2018-07-25T23:53:50.554Z,71.10
2018-07-25T23:56:20.038Z,71.10
2018-07-25T23:58:49.172Z,71.10
